Stephen Cunningham

Scout - Middlesbrough
16 Dec 2027
Thursday
Process

Personality

Adaptability (8) Ambition (8) Controversy (9) Loyalty (18) Pressure (20) Professionalism (8) Sportsmanship (11) Temperament (5)

Profile

Coaching Style Democratic
License Continental Pro
Determination 11
Man Management 7
Motivating 9
Discipline 9
Job Satisfaction
100%
Fatigue
0%
Role Scout
Wage 86.6K p/w
Contract 14.03.2029

Performance

Behaviour Good
Training Effectiveness
45%
Player Development
55%
Injury Prevention
60%
Tactical Implementation
60%

Recent Events

Attended a recruitment meeting 14d ago
Attended a recruitment meeting 21d ago
Attended a recruitment meeting 28d ago
Attended a recruitment meeting 35d ago
Attended a recruitment meeting 42d ago
Birthday 42d ago
Attended a recruitment meeting 49d ago
Attended a recruitment meeting 56d ago

Currently Monitoring

120
Player Club Status Ability Confidence Watched Last Observed Latest Vote
Sascha Britschgi Padova Active 125 / 129 40% 3 22.06.2027 -
Josh King Chelsea Active 139 / 145 40% 2 22.06.2027 -
Joel McGregor Swindon Town Active 89 / 95 40% 2 22.06.2027 -
Tom Atcheson Blackburn Rovers Report Ready 109 / 116 76% 1 03.06.2027 -
Ibrahim Maza Bayer Leverkusen Active 143 / 151 40% 4 31.05.2027 -
Leandro Martins Benfica Active 88 / 101 40% 3 30.05.2027 -
Ali Ahmed Norwich City Active 122 / 128 40% 4 29.05.2027 -
Giacomo Raspadori Atalanta Active 145 / 144 40% 3 29.05.2027 -
David Turnbull Cardiff City Active 120 / 114 40% 1 29.05.2027 -
Christos Mouzakitis Hull City Active 137 / 137 40% 3 27.05.2027 -
Matías Gómez Granada Active 112 / 122 40% 1 27.05.2027 -
Mats Wieffer Brighton Active 156 / 154 40% 7 26.05.2027 -
Othmane Maamma Watford Active 132 / 126 40% 3 26.05.2027 -
Hlompho Lorch Ajax Cape Town Active 107 / 98 40% 1 24.05.2027 -
Ethan Galbraith Swansea City Active 128 / 127 40% 4 23.05.2027 -
Davide Bartesaghi AC Milan Active 126 / 132 40% 3 23.05.2027 -
Dango Ouattara Brentford Active 152 / 140 40% 3 23.05.2027 -
Daniel Kelly Oxford United Active 117 / 117 40% 1 23.05.2027 -
Ronald Swansea City Active 124 / 129 40% 2 22.05.2027 -
Nicolas Jackson Aston Villa Active 147 / 147 40% 4 21.05.2027 -
Xavier Amaechi Plymouth Argyle Active 114 / 112 40% 1 21.05.2027 -
Jack Rudoni Coventry City Active 140 / 137 40% 2 19.05.2027 -
Kevin Fulham Active 149 / 154 40% 1 19.05.2027 -
Amine Adli Bournemouth Active 141 / 149 40% 3 18.05.2027 -
Finn Azaz Southampton Active 129 / 130 40% 3 18.05.2027 -
Keagan Tau Ajax Cape Town Active 86 / 95 40% 3 17.05.2027 -
Dylan Lawlor Cardiff City Active 117 / 122 40% 4 16.05.2027 -
Juan Giménez Celta Active 116 / 123 40% 1 16.05.2027 -
Georginio Rutter Brighton Active 149 / 150 40% 2 07.05.2027 -
Derry Murkin Derby County Active 127 / 121 40% 1 07.05.2027 -
Caleb Yirenkyi Coventry City Active 129 / 145 40% 1 04.05.2027 -
Zaïd BafdilI Sporting CP Active 89 / 98 40% 1 04.05.2027 -
Kazunari Kita Real Sociedad Active 99 / 107 40% 1 04.05.2027 -
Mduduzi Shabalala Kaizer Chiefs Active 121 / 122 40% 3 30.04.2027 -
Ollie Tanner Cardiff City Active 116 / 111 40% 2 30.04.2027 -
Rodrigo Gomes Wolverhampton Active 138 / 145 40% 1 30.04.2027 -
Williams Manyama SuperSport United Active 122 / 122 40% 4 29.04.2027 -
Jack McGlynn Stoke City Active 129 / 127 40% 1 29.04.2027 -
Kwame Poku Queens Park Rangers Active 119 / 119 40% 1 27.04.2027 -
Tshepang Moremi Orlando Pirates Active 119 / 116 40% 1 27.04.2027 -
Mandla Erasmus SuperSport United Active 114 / 121 40% 2 26.04.2027 -
Louie Barry Sheffield Wednesday Active 130 / 124 40% 1 26.04.2027 -
Amadou Onana Aston Villa Active 156 / 157 40% 3 24.04.2027 -
Oswin Appollis Orlando Pirates Active 127 / 114 40% 2 22.04.2027 -
Borja Sainz Fiorentina Active 152 / 149 40% 2 21.04.2027 -
Reiss Nelson Aston Villa Active 146 / 145 40% 1 21.04.2027 -
Adam Wharton Crystal Palace Active 153 / 152 40% 5 20.04.2027 -
Zane Albarus Cambridge United Active 99 / 95 40% 2 20.04.2027 -
Mikkel Damsgaard Brentford Active 146 / 142 40% 3 19.04.2027 -
Ernie Weaver AFC Wimbledon Active 104 / 116 40% 2 15.04.2027 -
Martim Cunha Porto Active 98 / 109 40% 1 15.04.2027 -
Riley Owen Trento Active 107 / 108 40% 1 15.04.2027 -
Daniel Kyerewaa Reading Active 108 / 116 40% 2 14.04.2027 -
Stanley Mills Oxford United Active 123 / 125 40% 1 14.04.2027 -
Matvey Kislyak CSKA Moscow Active 138 / 146 40% 1 14.04.2027 -
Jack Diamond Stockport County Active 112 / 120 40% 1 12.04.2027 -
Ilyas Ansah Hull City Active 129 / 137 40% 1 12.04.2027 -
Tom Fellows Southampton Active 140 / 135 40% 5 09.04.2027 -
Siyanda Ndlovu Bloemfontein Celtic Active 112 / 117 40% 2 09.04.2027 -
Jofre Torrents Ajax Active 122 / 130 40% 1 07.04.2027 -
Boubacar Kamara Aston Villa Active 168 / 161 40% 1 04.04.2027 -
Manor Solomon West Ham United Active 133 / 135 40% 1 03.04.2027 -
Christ Inao Oulaï Fiorentina Active 134 / 142 40% 2 01.04.2027 -
Yeremy Pino Crystal Palace Active 149 / 154 40% 2 26.03.2027 -
Percy Jali Free State Stars Active 104 / 104 40% 1 25.03.2027 -
Luiz Henrique West Ham United Active 138 / 145 40% 1 24.03.2027 -
Óscar Mingueza Crystal Palace Active 158 / 149 40% 3 22.03.2027 -
Adrien Truffert Bournemouth Active 146 / 155 40% 4 22.03.2027 -
Ryan Sessegnon Fulham Active 153 / 143 40% 2 18.03.2027 -
Scott Twine Bristol City Active 127 / 126 40% 2 18.03.2027 -
Keagan Phiri Platinum Stars Active 90 / 103 40% 2 17.03.2027 -
Rivaldo Grobler Free State Stars Active 98 / 99 40% 2 17.03.2027 -
Finn Jeltsch VfB Stuttgart Active 128 / 142 40% 1 17.03.2027 -
James Dornelly Peterborough United Active 104 / 114 40% 1 14.03.2027 -
Derrick Fordjour Medeama Active 89 / 88 40% 2 12.03.2027 -
Florentino Luís Ipswich Town Active 141 / 141 40% 1 10.03.2027 -
Carlos Vicente Birmingham Lost 145 / 144 40% 1 10.03.2027 -
Assane Diao Lazio Active 150 / 151 40% 1 08.03.2027 -
Mfundo Vilakazi Kaizer Chiefs Active 108 / 120 40% 1 02.03.2027 -
Jan Bürger Gillingham Active 117 / 120 40% 1 01.03.2027 -
Jack Hinshelwood Brighton Active 140 / 146 40% 1 01.03.2027 -
Bosun Lawal Stoke City Active 133 / 120 40% 1 31.12.2026 -
André Wolverhampton Active 148 / 149 40% 1 28.12.2026 -
Noah Sadiki Sunderland Active 147 / 146 40% 3 26.12.2026 -
Nicolás Fernández Mercau Shakhtar Active 146 / 138 40% 2 26.12.2026 -
Ethan Ampadu Leeds United Active 142 / 146 40% 1 26.12.2026 -
Anel Ahmedhodžić Burnley Active 131 / 133 40% 1 25.12.2026 -
Elliot Anderson Manchester City Active 146 / 159 40% 3 24.12.2026 -
Imrân Louza Watford Active 123 / 126 40% 1 24.12.2026 -
Jake O'Brien Everton Active 143 / 148 40% 1 23.12.2026 -
Nathan Collins Brentford Active 144 / 146 40% 1 23.12.2026 -
Soungoutou Magassa West Ham United Active 140 / 132 40% 2 21.12.2026 -
Loïc Williams Colorado Rapids Active 121 / 132 40% 1 15.12.2026 -
Habib Diarra Sunderland Active 131 / 142 40% 3 09.12.2026 -
Teden Mengi Luton Town Active 122 / 117 40% 1 09.12.2026 -
Bradley Tau SuperSport United Active 126 / 130 40% 3 08.12.2026 -
Aaron Hickey Brentford Active 136 / 148 40% 4 05.12.2026 -
James Garner Everton Active 151 / 157 40% 2 03.12.2026 -
Jacques Ekomié Wrexham Active 132 / 132 40% 1 03.12.2026 -
Yehor Yarmoliuk Brentford Active 141 / 145 40% 1 02.12.2026 -
Bobby Thomas Coventry City Active 130 / 138 40% 1 30.11.2026 -
Christian Krasnodar Active 135 / 127 40% 1 30.11.2026 -
Welington Southampton Active 125 / 136 40% 2 29.11.2026 -
Jarrad Branthwaite Everton Active 159 / 145 40% 2 28.11.2026 -
Lewis Gibson Preston Active 129 / 118 40% 1 28.11.2026 -
Juan Manuel Sanabria Real Salt Lake Active 130 / 131 40% 2 26.11.2026 -
Alhassan Yusuf New England Revolution Active 123 / 115 40% 1 25.11.2026 -
Quinten Timber Crystal Palace Active 155 / 147 40% 3 23.11.2026 -
Rico Lewis Manchester City Active 154 / 156 40% 2 23.11.2026 -
Facundo Mura Inter Miami CF Active 138 / 121 40% 2 20.11.2026 -
Callum Doyle Wrexham Active 129 / 130 40% 2 19.11.2026 -
Lukas Engel Real Salt Lake Active 136 / 117 40% 3 14.11.2026 -
Juanlu Bournemouth Active 147 / 148 40% 1 13.11.2026 -
Malick Thiaw West Ham United Active 154 / 159 40% 1 12.11.2026 -
Bryan Ramírez FC Cincinnati Active 126 / 129 40% 1 12.11.2026 -
Toby Collyer West Bromwich Albion Active 121 / 132 40% 1 06.11.2026 -
Kimito Nono Sanfrecce Hiroshima Active 125 / 124 40% 1 20.10.2026 -
Shea Charles Southampton Active 137 / 142 40% 1 18.10.2026 -
David Brekalo Orlando City Active 140 / 117 40% 1 12.10.2026 -
James Sands New York City Active 118 / 126 40% 1 08.10.2026 -